sensor_id;sensor_type;location;lat;lon;timestamp;P1;P2;P0
73623;PMS5003;61921;53.226;-1.296;2023-03-12T00:00:58;25;24;
73623;PMS5003;61921;53.226;-1.296;2023-03-12T00:03:22;24;21;
73623;PMS5003;61921;53.226;-1.296;2023-03-12T00:05:48;24;22;
73623;PMS5003;61921;53.226;-1.296;2023-03-12T00:08:13;24;21;
73623;PMS5003;61921;53.226;-1.296;2023-03-12T00:10:39;23;22;
73623;PMS5003;61921;53.226;-1.296;2023-03-12T00:13:05;21;19;
73623;PMS5003;61921;53.226;-1.296;2023-03-12T00:15:31;21;18;
73623;PMS5003;61921;53.226;-1.296;2023-03-12T00:17:56;22;21;
73623;PMS5003;61921;53.226;-1.296;2023-03-12T00:20:21;18;16;
73623;PMS5003;61921;53.226;-1.296;2023-03-12T00:22:47;22;20;
73623;PMS5003;61921;53.226;-1.296;2023-03-12T00:25:14;20;20;
73623;PMS5003;61921;53.226;-1.296;2023-03-12T00:27:37;25;24;
73623;PMS5003;61921;53.226;-1.296;2023-03-12T00:30:04;22;19;
73623;PMS5003;61921;53.226;-1.296;2023-03-12T00:32:29;20;19;
73623;PMS5003;61921;53.226;-1.296;2023-03-12T00:34:54;26;26;
73623;PMS5003;61921;53.226;-1.296;2023-03-12T00:37:19;26;21;
73623;PMS5003;61921;53.226;-1.296;2023-03-12T00:39:44;21;21;
73623;PMS5003;61921;53.226;-1.296;2023-03-12T00:42:09;25;22;
73623;PMS5003;61921;53.226;-1.296;2023-03-12T00:44:35;36;27;
73623;PMS5003;61921;53.226;-1.296;2023-03-12T00:47:00;29;26;
73623;PMS5003;61921;53.226;-1.296;2023-03-12T00:49:25;23;21;
73623;PMS5003;61921;53.226;-1.296;2023-03-12T00:51:51;27;26;
73623;PMS5003;61921;53.226;-1.296;2023-03-12T00:54:17;26;22;
73623;PMS5003;61921;53.226;-1.296;2023-03-12T00:56:43;29;29;
73623;PMS5003;61921;53.226;-1.296;2023-03-12T00:59:08;26;26;
73623;PMS5003;61921;53.226;-1.296;2023-03-12T01:01:33;31;26;
73623;PMS5003;61921;53.226;-1.296;2023-03-12T01:03:59;27;26;
73623;PMS5003;61921;53.226;-1.296;2023-03-12T01:06:24;36;31;
73623;PMS5003;61921;53.226;-1.296;2023-03-12T01:08:49;32;27;
73623;PMS5003;61921;53.226;-1.296;2023-03-12T01:11:15;28;27;
73623;PMS5003;61921;53.226;-1.296;2023-03-12T01:13:40;32;30;
73623;PMS5003;61921;53.226;-1.296;2023-03-12T01:16:06;38;34;
73623;PMS5003;61921;53.226;-1.296;2023-03-12T01:18:31;36;33;
73623;PMS5003;61921;53.226;-1.296;2023-03-12T01:20:56;35;32;
73623;PMS5003;61921;53.226;-1.296;2023-03-12T01:23:22;28;28;
73623;PMS5003;61921;53.226;-1.296;2023-03-12T01:25:48;37;32;
73623;PMS5003;61921;53.226;-1.296;2023-03-12T01:28:13;57;44;
73623;PMS5003;61921;53.226;-1.296;2023-03-12T01:30:38;41;33;
73623;PMS5003;61921;53.226;-1.296;2023-03-12T01:33:03;36;30;
73623;PMS5003;61921;53.226;-1.296;2023-03-12T01:35:28;40;33;
73623;PMS5003;61921;53.226;-1.296;2023-03-12T01:37:54;37;29;
73623;PMS5003;61921;53.226;-1.296;2023-03-12T01:40:20;38;32;
73623;PMS5003;61921;53.226;-1.296;2023-03-12T01:42:50;33;30;
73623;PMS5003;61921;53.226;-1.296;2023-03-12T01:47:36;32;28;
73623;PMS5003;61921;53.226;-1.296;2023-03-12T01:50:02;30;29;
73623;PMS5003;61921;53.226;-1.296;2023-03-12T01:52:28;25;23;
73623;PMS5003;61921;53.226;-1.296;2023-03-12T01:54:53;34;29;
73623;PMS5003;61921;53.226;-1.296;2023-03-12T01:57:19;28;23;
73623;PMS5003;61921;53.226;-1.296;2023-03-12T01:59:43;33;30;
73623;PMS5003;61921;53.226;-1.296;2023-03-12T02:02:08;24;24;
73623;PMS5003;61921;53.226;-1.296;2023-03-12T02:04:34;32;30;
73623;PMS5003;61921;53.226;-1.296;2023-03-12T02:07:01;26;23;
73623;PMS5003;61921;53.226;-1.296;2023-03-12T02:09:25;24;24;
73623;PMS5003;61921;53.226;-1.296;2023-03-12T02:11:50;22;21;
73623;PMS5003;61921;53.226;-1.296;2023-03-12T02:14:16;25;22;
73623;PMS5003;61921;53.226;-1.296;2023-03-12T02:16:40;24;23;
73623;PMS5003;61921;53.226;-1.296;2023-03-12T02:19:07;25;23;
73623;PMS5003;61921;53.226;-1.296;2023-03-12T02:21:31;28;23;
73623;PMS5003;61921;53.226;-1.296;2023-03-12T02:24:00;24;21;
73623;PMS5003;61921;53.226;-1.296;2023-03-12T02:26:22;25;22;
73623;PMS5003;61921;53.226;-1.296;2023-03-12T02:28:47;27;24;
73623;PMS5003;61921;53.226;-1.296;2023-03-12T02:31:13;23;22;
73623;PMS5003;61921;53.226;-1.296;2023-03-12T02:33:38;26;21;
73623;PMS5003;61921;53.226;-1.296;2023-03-12T02:36:04;25;24;
73623;PMS5003;61921;53.226;-1.296;2023-03-12T02:38:36;23;22;
73623;PMS5003;61921;53.226;-1.296;2023-03-12T02:40:54;25;23;
73623;PMS5003;61921;53.226;-1.296;2023-03-12T02:43:20;24;23;
73623;PMS5003;61921;53.226;-1.296;2023-03-12T02:45:45;22;21;
73623;PMS5003;61921;53.226;-1.296;2023-03-12T02:48:11;31;27;
73623;PMS5003;61921;53.226;-1.296;2023-03-12T02:50:36;30;27;
73623;PMS5003;61921;53.226;-1.296;2023-03-12T02:53:02;34;30;
73623;PMS5003;61921;53.226;-1.296;2023-03-12T02:55:27;35;29;
73623;PMS5003;61921;53.226;-1.296;2023-03-12T02:57:53;31;31;
73623;PMS5003;61921;53.226;-1.296;2023-03-12T03:00:19;36;34;
73623;PMS5003;61921;53.226;-1.296;2023-03-12T03:02:44;31;29;
73623;PMS5003;61921;53.226;-1.296;2023-03-12T03:05:09;36;35;
73623;PMS5003;61921;53.226;-1.296;2023-03-12T03:07:34;30;26;
73623;PMS5003;61921;53.226;-1.296;2023-03-12T03:10:00;29;29;
73623;PMS5003;61921;53.226;-1.296;2023-03-12T03:12:26;42;34;
73623;PMS5003;61921;53.226;-1.296;2023-03-12T03:14:52;35;27;
73623;PMS5003;61921;53.226;-1.296;2023-03-12T03:17:17;30;26;
73623;PMS5003;61921;53.226;-1.296;2023-03-12T03:19:43;36;32;
73623;PMS5003;61921;53.226;-1.296;2023-03-12T03:22:08;37;30;
73623;PMS5003;61921;53.226;-1.296;2023-03-12T03:24:33;29;25;
73623;PMS5003;61921;53.226;-1.296;2023-03-12T03:26:59;31;30;
73623;PMS5003;61921;53.226;-1.296;2023-03-12T03:29:24;30;24;
73623;PMS5003;61921;53.226;-1.296;2023-03-12T03:31:50;27;24;
73623;PMS5003;61921;53.226;-1.296;2023-03-12T03:34:15;29;24;
73623;PMS5003;61921;53.226;-1.296;2023-03-12T03:36:41;29;24;
73623;PMS5003;61921;53.226;-1.296;2023-03-12T03:39:06;29;24;
73623;PMS5003;61921;53.226;-1.296;2023-03-12T03:41:32;34;34;
73623;PMS5003;61921;53.226;-1.296;2023-03-12T03:43:58;27;26;
73623;PMS5003;61921;53.226;-1.296;2023-03-12T03:46:23;39;30;
73623;PMS5003;61921;53.226;-1.296;2023-03-12T03:48:48;27;25;
73623;PMS5003;61921;53.226;-1.296;2023-03-12T03:51:13;33;25;
73623;PMS5003;61921;53.226;-1.296;2023-03-12T03:53:39;33;29;
73623;PMS5003;61921;53.226;-1.296;2023-03-12T03:56:05;29;25;
73623;PMS5003;61921;53.226;-1.296;2023-03-12T03:58:30;24;22;
73623;PMS5003;61921;53.226;-1.296;2023-03-12T04:00:56;27;26;
73623;PMS5003;61921;53.226;-1.296;2023-03-12T04:03:22;23;22;
73623;PMS5003;61921;53.226;-1.296;2023-03-12T04:05:52;31;25;
73623;PMS5003;61921;53.226;-1.296;2023-03-12T04:08:13;22;21;
73623;PMS5003;61921;53.226;-1.296;2023-03-12T04:10:38;28;23;
73623;PMS5003;61921;53.226;-1.296;2023-03-12T04:13:03;28;26;
73623;PMS5003;61921;53.226;-1.296;2023-03-12T04:15:29;29;27;
73623;PMS5003;61921;53.226;-1.296;2023-03-12T04:17:54;28;24;
73623;PMS5003;61921;53.226;-1.296;2023-03-12T04:20:20;30;25;
73623;PMS5003;61921;53.226;-1.296;2023-03-12T04:22:45;27;26;
73623;PMS5003;61921;53.226;-1.296;2023-03-12T04:25:10;26;25;
73623;PMS5003;61921;53.226;-1.296;2023-03-12T04:27:36;20;18;
73623;PMS5003;61921;53.226;-1.296;2023-03-12T04:30:02;18;17;
73623;PMS5003;61921;53.226;-1.296;2023-03-12T04:32:26;24;20;
73623;PMS5003;61921;53.226;-1.296;2023-03-12T04:34:52;18;16;
73623;PMS5003;61921;53.226;-1.296;2023-03-12T04:37:18;19;18;
73623;PMS5003;61921;53.226;-1.296;2023-03-12T04:39:44;20;19;
73623;PMS5003;61921;53.226;-1.296;2023-03-12T04:42:09;24;19;
73623;PMS5003;61921;53.226;-1.296;2023-03-12T04:44:35;20;15;
73623;PMS5003;61921;53.226;-1.296;2023-03-12T04:47:00;20;18;
73623;PMS5003;61921;53.226;-1.296;2023-03-12T04:49:25;19;17;
73623;PMS5003;61921;53.226;-1.296;2023-03-12T04:51:52;19;18;
73623;PMS5003;61921;53.226;-1.296;2023-03-12T04:54:17;16;16;
73623;PMS5003;61921;53.226;-1.296;2023-03-12T04:56:43;24;21;
73623;PMS5003;61921;53.226;-1.296;2023-03-12T04:59:08;19;19;
73623;PMS5003;61921;53.226;-1.296;2023-03-12T05:01:35;21;19;
73623;PMS5003;61921;53.226;-1.296;2023-03-12T05:04:00;20;18;
73623;PMS5003;61921;53.226;-1.296;2023-03-12T05:06:25;20;14;
73623;PMS5003;61921;53.226;-1.296;2023-03-12T05:08:51;22;19;
73623;PMS5003;61921;53.226;-1.296;2023-03-12T05:11:16;18;17;
73623;PMS5003;61921;53.226;-1.296;2023-03-12T05:13:41;20;16;
73623;PMS5003;61921;53.226;-1.296;2023-03-12T05:16:07;20;17;
73623;PMS5003;61921;53.226;-1.296;2023-03-12T05:18:33;22;19;
73623;PMS5003;61921;53.226;-1.296;2023-03-12T05:20:59;21;14;
73623;PMS5003;61921;53.226;-1.296;2023-03-12T05:23:23;20;17;
73623;PMS5003;61921;53.226;-1.296;2023-03-12T05:25:49;20;18;
73623;PMS5003;61921;53.226;-1.296;2023-03-12T05:28:14;26;17;
73623;PMS5003;61921;53.226;-1.296;2023-03-12T05:30:40;14;12;
73623;PMS5003;61921;53.226;-1.296;2023-03-12T05:33:05;20;12;
73623;PMS5003;61921;53.226;-1.296;2023-03-12T05:35:31;12;11;
73623;PMS5003;61921;53.226;-1.296;2023-03-12T05:37:57;23;13;
73623;PMS5003;61921;53.226;-1.296;2023-03-12T05:40:22;19;14;
73623;PMS5003;61921;53.226;-1.296;2023-03-12T05:42:48;21;18;
73623;PMS5003;61921;53.226;-1.296;2023-03-12T05:45:13;21;18;
73623;PMS5003;61921;53.226;-1.296;2023-03-12T05:47:38;17;14;
73623;PMS5003;61921;53.226;-1.296;2023-03-12T05:50:03;17;16;
73623;PMS5003;61921;53.226;-1.296;2023-03-12T05:52:28;15;15;
73623;PMS5003;61921;53.226;-1.296;2023-03-12T05:54:54;17;16;
73623;PMS5003;61921;53.226;-1.296;2023-03-12T05:57:19;21;17;
73623;PMS5003;61921;53.226;-1.296;2023-03-12T05:59:44;21;15;
73623;PMS5003;61921;53.226;-1.296;2023-03-12T06:02:10;12;11;
73623;PMS5003;61921;53.226;-1.296;2023-03-12T06:04:35;16;12;
73623;PMS5003;61921;53.226;-1.296;2023-03-12T06:07:01;21;15;
73623;PMS5003;61921;53.226;-1.296;2023-03-12T06:09:26;17;12;
73623;PMS5003;61921;53.226;-1.296;2023-03-12T06:11:52;13;11;
73623;PMS5003;61921;53.226;-1.296;2023-03-12T06:14:18;17;12;
73623;PMS5003;61921;53.226;-1.296;2023-03-12T06:16:42;16;11;
73623;PMS5003;61921;53.226;-1.296;2023-03-12T06:19:09;16;13;
73623;PMS5003;61921;53.226;-1.296;2023-03-12T06:21:34;10;10;
73623;PMS5003;61921;53.226;-1.296;2023-03-12T06:23:59;17;10;
73623;PMS5003;61921;53.226;-1.296;2023-03-12T06:26:25;14;10;
73623;PMS5003;61921;53.226;-1.296;2023-03-12T06:28:51;18;16;
73623;PMS5003;61921;53.226;-1.296;2023-03-12T06:31:16;15;11;
73623;PMS5003;61921;53.226;-1.296;2023-03-12T06:33:41;12;9;
73623;PMS5003;61921;53.226;-1.296;2023-03-12T06:36:07;11;8;
73623;PMS5003;61921;53.226;-1.296;2023-03-12T06:38:32;11;9;
73623;PMS5003;61921;53.226;-1.296;2023-03-12T06:40:59;11;8;
73623;PMS5003;61921;53.226;-1.296;2023-03-12T06:43:24;11;10;
73623;PMS5003;61921;53.226;-1.296;2023-03-12T06:45:48;14;10;
73623;PMS5003;61921;53.226;-1.296;2023-03-12T06:48:14;12;7;
73623;PMS5003;61921;53.226;-1.296;2023-03-12T06:50:39;11;9;
73623;PMS5003;61921;53.226;-1.296;2023-03-12T06:53:05;10;9;
73623;PMS5003;61921;53.226;-1.296;2023-03-12T06:55:30;16;13;
73623;PMS5003;61921;53.226;-1.296;2023-03-12T06:57:56;14;8;
73623;PMS5003;61921;53.226;-1.296;2023-03-12T07:00:22;17;12;
73623;PMS5003;61921;53.226;-1.296;2023-03-12T07:02:47;24;12;
73623;PMS5003;61921;53.226;-1.296;2023-03-12T07:05:12;12;10;
73623;PMS5003;61921;53.226;-1.296;2023-03-12T07:07:38;13;8;
73623;PMS5003;61921;53.226;-1.296;2023-03-12T07:10:04;10;9;
73623;PMS5003;61921;53.226;-1.296;2023-03-12T07:12:29;10;7;
73623;PMS5003;61921;53.226;-1.296;2023-03-12T07:14:54;16;7;
73623;PMS5003;61921;53.226;-1.296;2023-03-12T07:17:20;12;9;
73623;PMS5003;61921;53.226;-1.296;2023-03-12T07:19:45;16;9;
73623;PMS5003;61921;53.226;-1.296;2023-03-12T07:22:10;14;11;
73623;PMS5003;61921;53.226;-1.296;2023-03-12T07:24:36;16;10;
73623;PMS5003;61921;53.226;-1.296;2023-03-12T07:27:01;13;7;
73623;PMS5003;61921;53.226;-1.296;2023-03-12T07:29:26;12;8;
73623;PMS5003;61921;53.226;-1.296;2023-03-12T07:31:51;12;8;
73623;PMS5003;61921;53.226;-1.296;2023-03-12T07:34:17;11;9;
73623;PMS5003;61921;53.226;-1.296;2023-03-12T07:36:42;12;9;
73623;PMS5003;61921;53.226;-1.296;2023-03-12T07:39:08;10;10;
73623;PMS5003;61921;53.226;-1.296;2023-03-12T07:41:33;19;8;
73623;PMS5003;61921;53.226;-1.296;2023-03-12T07:43:59;14;10;
73623;PMS5003;61921;53.226;-1.296;2023-03-12T07:46:24;10;8;
73623;PMS5003;61921;53.226;-1.296;2023-03-12T07:48:49;14;13;
73623;PMS5003;61921;53.226;-1.296;2023-03-12T07:51:15;14;8;
73623;PMS5003;61921;53.226;-1.296;2023-03-12T07:53:40;8;7;
73623;PMS5003;61921;53.226;-1.296;2023-03-12T07:56:05;15;14;
73623;PMS5003;61921;53.226;-1.296;2023-03-12T07:58:30;16;9;
73623;PMS5003;61921;53.226;-1.296;2023-03-12T08:00:56;16;15;
73623;PMS5003;61921;53.226;-1.296;2023-03-12T08:03:21;14;11;
73623;PMS5003;61921;53.226;-1.296;2023-03-12T08:08:13;12;10;
73623;PMS5003;61921;53.226;-1.296;2023-03-12T08:10:38;12;11;
73623;PMS5003;61921;53.226;-1.296;2023-03-12T08:13:03;15;9;
73623;PMS5003;61921;53.226;-1.296;2023-03-12T08:15:29;13;10;
73623;PMS5003;61921;53.226;-1.296;2023-03-12T08:17:54;12;9;
73623;PMS5003;61921;53.226;-1.296;2023-03-12T08:20:20;15;11;
73623;PMS5003;61921;53.226;-1.296;2023-03-12T08:22:45;19;14;
73623;PMS5003;61921;53.226;-1.296;2023-03-12T08:25:11;18;13;
73623;PMS5003;61921;53.226;-1.296;2023-03-12T08:27:37;25;16;
73623;PMS5003;61921;53.226;-1.296;2023-03-12T08:30:03;20;16;
73623;PMS5003;61921;53.226;-1.296;2023-03-12T08:32:28;15;11;
73623;PMS5003;61921;53.226;-1.296;2023-03-12T08:34:53;18;11;
73623;PMS5003;61921;53.226;-1.296;2023-03-12T08:37:18;25;15;
73623;PMS5003;61921;53.226;-1.296;2023-03-12T08:39:44;26;22;
73623;PMS5003;61921;53.226;-1.296;2023-03-12T08:42:09;27;26;
73623;PMS5003;61921;53.226;-1.296;2023-03-12T08:44:35;11;6;
73623;PMS5003;61921;53.226;-1.296;2023-03-12T08:47:00;14;11;
73623;PMS5003;61921;53.226;-1.296;2023-03-12T08:49:26;17;10;
73623;PMS5003;61921;53.226;-1.296;2023-03-12T08:51:51;18;12;
73623;PMS5003;61921;53.226;-1.296;2023-03-12T08:54:16;11;9;
73623;PMS5003;61921;53.226;-1.296;2023-03-12T08:56:42;11;8;
73623;PMS5003;61921;53.226;-1.296;2023-03-12T08:59:08;25;18;
73623;PMS5003;61921;53.226;-1.296;2023-03-12T09:01:33;14;10;
73623;PMS5003;61921;53.226;-1.296;2023-03-12T09:03:58;18;12;
73623;PMS5003;61921;53.226;-1.296;2023-03-12T09:06:24;14;8;
73623;PMS5003;61921;53.226;-1.296;2023-03-12T09:08:49;14;11;
73623;PMS5003;61921;53.226;-1.296;2023-03-12T09:11:15;10;8;
73623;PMS5003;61921;53.226;-1.296;2023-03-12T09:13:40;12;8;
73623;PMS5003;61921;53.226;-1.296;2023-03-12T09:16:06;15;12;
73623;PMS5003;61921;53.226;-1.296;2023-03-12T09:18:31;10;7;
73623;PMS5003;61921;53.226;-1.296;2023-03-12T09:20:56;15;13;
73623;PMS5003;61921;53.226;-1.296;2023-03-12T09:23:21;13;9;
73623;PMS5003;61921;53.226;-1.296;2023-03-12T09:25:47;12;10;
73623;PMS5003;61921;53.226;-1.296;2023-03-12T09:28:12;16;10;
73623;PMS5003;61921;53.226;-1.296;2023-03-12T09:30:38;12;8;
73623;PMS5003;61921;53.226;-1.296;2023-03-12T09:33:03;10;8;
73623;PMS5003;61921;53.226;-1.296;2023-03-12T09:35:28;11;7;
73623;PMS5003;61921;53.226;-1.296;2023-03-12T09:37:53;12;9;
73623;PMS5003;61921;53.226;-1.296;2023-03-12T09:40:20;10;8;
73623;PMS5003;61921;53.226;-1.296;2023-03-12T09:42:45;13;8;
73623;PMS5003;61921;53.226;-1.296;2023-03-12T09:45:13;16;8;
73623;PMS5003;61921;53.226;-1.296;2023-03-12T09:47:36;12;8;
73623;PMS5003;61921;53.226;-1.296;2023-03-12T09:50:02;11;8;
73623;PMS5003;61921;53.226;-1.296;2023-03-12T09:52:27;13;8;
73623;PMS5003;61921;53.226;-1.296;2023-03-12T09:54:53;15;11;
73623;PMS5003;61921;53.226;-1.296;2023-03-12T09:57:23;19;13;
73623;PMS5003;61921;53.226;-1.296;2023-03-12T09:59:42;12;11;
73623;PMS5003;61921;53.226;-1.296;2023-03-12T10:04:37;15;9;
73623;PMS5003;61921;53.226;-1.296;2023-03-12T10:07:00;16;13;
73623;PMS5003;61921;53.226;-1.296;2023-03-12T10:09:28;7;6;
73623;PMS5003;61921;53.226;-1.296;2023-03-12T10:11:50;17;7;
73623;PMS5003;61921;53.226;-1.296;2023-03-12T10:14:17;10;5;
73623;PMS5003;61921;53.226;-1.296;2023-03-12T10:16:44;13;7;
73623;PMS5003;61921;53.226;-1.296;2023-03-12T10:19:08;17;14;
73623;PMS5003;61921;53.226;-1.296;2023-03-12T10:21:31;14;11;
73623;PMS5003;61921;53.226;-1.296;2023-03-12T10:24:00;8;7;
73623;PMS5003;61921;53.226;-1.296;2023-03-12T10:26:22;21;15;
73623;PMS5003;61921;53.226;-1.296;2023-03-12T10:28:48;22;11;
73623;PMS5003;61921;53.226;-1.296;2023-03-12T10:31:13;10;7;
73623;PMS5003;61921;53.226;-1.296;2023-03-12T10:33:40;15;6;
73623;PMS5003;61921;53.226;-1.296;2023-03-12T10:36:07;17;10;
73623;PMS5003;61921;53.226;-1.296;2023-03-12T10:38:29;11;7;
73623;PMS5003;61921;53.226;-1.296;2023-03-12T10:40:54;11;7;
73623;PMS5003;61921;53.226;-1.296;2023-03-12T10:43:19;8;5;
73623;PMS5003;61921;53.226;-1.296;2023-03-12T10:45:46;16;13;
73623;PMS5003;61921;53.226;-1.296;2023-03-12T10:48:17;19;8;
73623;PMS5003;61921;53.226;-1.296;2023-03-12T10:50:36;11;8;
73623;PMS5003;61921;53.226;-1.296;2023-03-12T10:55:28;10;7;
73623;PMS5003;61921;53.226;-1.296;2023-03-12T10:57:52;11;9;
73623;PMS5003;61921;53.226;-1.296;2023-03-12T11:00:19;13;12;
73623;PMS5003;61921;53.226;-1.296;2023-03-12T11:02:42;10;5;
73623;PMS5003;61921;53.226;-1.296;2023-03-12T11:07:33;11;7;
73623;PMS5003;61921;53.226;-1.296;2023-03-12T11:12:24;12;6;
73623;PMS5003;61921;53.226;-1.296;2023-03-12T11:14:48;10;10;
73623;PMS5003;61921;53.226;-1.296;2023-03-12T11:17:18;11;10;
73623;PMS5003;61921;53.226;-1.296;2023-03-12T11:19:38;11;7;
73623;PMS5003;61921;53.226;-1.296;2023-03-12T11:22:04;15;13;
73623;PMS5003;61921;53.226;-1.296;2023-03-12T11:24:29;15;8;
73623;PMS5003;61921;53.226;-1.296;2023-03-12T11:26:56;17;9;
73623;PMS5003;61921;53.226;-1.296;2023-03-12T11:29:23;17;8;
73623;PMS5003;61921;53.226;-1.296;2023-03-12T11:31:48;10;8;
73623;PMS5003;61921;53.226;-1.296;2023-03-12T11:34:12;10;8;
73623;PMS5003;61921;53.226;-1.296;2023-03-12T11:36:38;8;7;
73623;PMS5003;61921;53.226;-1.296;2023-03-12T11:39:02;11;9;
73623;PMS5003;61921;53.226;-1.296;2023-03-12T11:41:33;14;10;
73623;PMS5003;61921;53.226;-1.296;2023-03-12T11:43:57;13;6;
73623;PMS5003;61921;53.226;-1.296;2023-03-12T11:46:21;12;11;
73623;PMS5003;61921;53.226;-1.296;2023-03-12T11:48:47;8;7;
73623;PMS5003;61921;53.226;-1.296;2023-03-12T11:51:13;15;11;
73623;PMS5003;61921;53.226;-1.296;2023-03-12T11:53:39;8;6;
73623;PMS5003;61921;53.226;-1.296;2023-03-12T11:56:03;4;4;
73623;PMS5003;61921;53.226;-1.296;2023-03-12T11:58:30;11;7;
73623;PMS5003;61921;53.226;-1.296;2023-03-12T12:00:53;8;7;
73623;PMS5003;61921;53.226;-1.296;2023-03-12T12:03:26;8;7;
73623;PMS5003;61921;53.226;-1.296;2023-03-12T12:05:44;13;10;
73623;PMS5003;61921;53.226;-1.296;2023-03-12T12:08:14;9;6;
73623;PMS5003;61921;53.226;-1.296;2023-03-12T12:10:36;10;7;
73623;PMS5003;61921;53.226;-1.296;2023-03-12T12:13:03;11;9;
73623;PMS5003;61921;53.226;-1.296;2023-03-12T12:15:27;12;7;
73623;PMS5003;61921;53.226;-1.296;2023-03-12T12:17:55;10;6;
73623;PMS5003;61921;53.226;-1.296;2023-03-12T12:20:18;10;5;
73623;PMS5003;61921;53.226;-1.296;2023-03-12T12:22:46;9;7;
73623;PMS5003;61921;53.226;-1.296;2023-03-12T12:25:14;10;5;
73623;PMS5003;61921;53.226;-1.296;2023-03-12T12:27:34;8;4;
73623;PMS5003;61921;53.226;-1.296;2023-03-12T12:30:06;6;4;
73623;PMS5003;61921;53.226;-1.296;2023-03-12T12:32:26;10;5;
73623;PMS5003;61921;53.226;-1.296;2023-03-12T12:34:53;9;8;
73623;PMS5003;61921;53.226;-1.296;2023-03-12T12:37:18;6;3;
73623;PMS5003;61921;53.226;-1.296;2023-03-12T12:39:41;8;5;
73623;PMS5003;61921;53.226;-1.296;2023-03-12T12:42:06;8;6;
73623;PMS5003;61921;53.226;-1.296;2023-03-12T12:44:31;7;5;
73623;PMS5003;61921;53.226;-1.296;2023-03-12T12:46:57;6;5;
73623;PMS5003;61921;53.226;-1.296;2023-03-12T12:49:21;7;4;
73623;PMS5003;61921;53.226;-1.296;2023-03-12T12:51:47;11;5;
73623;PMS5003;61921;53.226;-1.296;2023-03-12T12:54:13;12;6;
73623;PMS5003;61921;53.226;-1.296;2023-03-12T12:56:38;8;4;
73623;PMS5003;61921;53.226;-1.296;2023-03-12T12:59:05;7;6;
73623;PMS5003;61921;53.226;-1.296;2023-03-12T13:01:27;4;4;
73623;PMS5003;61921;53.226;-1.296;2023-03-12T13:03:55;8;5;
73623;PMS5003;61921;53.226;-1.296;2023-03-12T13:06:19;7;6;
73623;PMS5003;61921;53.226;-1.296;2023-03-12T13:13:35;11;5;
73623;PMS5003;61921;53.226;-1.296;2023-03-12T13:18:27;6;5;
73623;PMS5003;61921;53.226;-1.296;2023-03-12T13:21:00;9;5;
73623;PMS5003;61921;53.226;-1.296;2023-03-12T13:23:24;11;6;
73623;PMS5003;61921;53.226;-1.296;2023-03-12T13:25:46;7;4;
73623;PMS5003;61921;53.226;-1.296;2023-03-12T13:30:45;6;5;
73623;PMS5003;61921;53.226;-1.296;2023-03-12T13:33:05;13;6;
73623;PMS5003;61921;53.226;-1.296;2023-03-12T13:35:28;9;4;
73623;PMS5003;61921;53.226;-1.296;2023-03-12T13:42:42;7;3;
73623;PMS5003;61921;53.226;-1.296;2023-03-12T13:47:36;13;7;
73623;PMS5003;61921;53.226;-1.296;2023-03-12T13:49:59;8;6;
73623;PMS5003;61921;53.226;-1.296;2023-03-12T13:52:24;8;4;
73623;PMS5003;61921;53.226;-1.296;2023-03-12T13:54:49;10;9;
73623;PMS5003;61921;53.226;-1.296;2023-03-12T13:59:42;12;9;
73623;PMS5003;61921;53.226;-1.296;2023-03-12T14:02:06;5;4;
73623;PMS5003;61921;53.226;-1.296;2023-03-12T14:04:32;10;5;
73623;PMS5003;61921;53.226;-1.296;2023-03-12T14:06:59;6;5;
73623;PMS5003;61921;53.226;-1.296;2023-03-12T14:09:21;6;5;
73623;PMS5003;61921;53.226;-1.296;2023-03-12T14:11:49;10;6;
73623;PMS5003;61921;53.226;-1.296;2023-03-12T14:14:19;10;4;
73623;PMS5003;61921;53.226;-1.296;2023-03-12T14:16:38;6;5;
73623;PMS5003;61921;53.226;-1.296;2023-03-12T14:19:02;11;6;
73623;PMS5003;61921;53.226;-1.296;2023-03-12T14:21:29;7;5;
73623;PMS5003;61921;53.226;-1.296;2023-03-12T14:23:55;8;6;
73623;PMS5003;61921;53.226;-1.296;2023-03-12T14:26:20;10;7;
73623;PMS5003;61921;53.226;-1.296;2023-03-12T14:28:44;8;6;
73623;PMS5003;61921;53.226;-1.296;2023-03-12T14:31:11;5;5;
73623;PMS5003;61921;53.226;-1.296;2023-03-12T14:33:40;4;4;
73623;PMS5003;61921;53.226;-1.296;2023-03-12T14:36:02;7;5;
73623;PMS5003;61921;53.226;-1.296;2023-03-12T14:38:28;13;8;
73623;PMS5003;61921;53.226;-1.296;2023-03-12T14:40:54;10;6;
73623;PMS5003;61921;53.226;-1.296;2023-03-12T14:43:18;8;4;
73623;PMS5003;61921;53.226;-1.296;2023-03-12T14:45:43;10;6;
73623;PMS5003;61921;53.226;-1.296;2023-03-12T14:48:09;13;6;
73623;PMS5003;61921;53.226;-1.296;2023-03-12T14:50:37;9;6;
73623;PMS5003;61921;53.226;-1.296;2023-03-12T14:55:25;11;8;
73623;PMS5003;61921;53.226;-1.296;2023-03-12T15:00:21;19;10;
73623;PMS5003;61921;53.226;-1.296;2023-03-12T15:02:42;14;12;
73623;PMS5003;61921;53.226;-1.296;2023-03-12T15:07:34;13;9;
73623;PMS5003;61921;53.226;-1.296;2023-03-12T15:10:00;14;11;
73623;PMS5003;61921;53.226;-1.296;2023-03-12T15:12:25;7;5;
73623;PMS5003;61921;53.226;-1.296;2023-03-12T15:14:51;15;9;
73623;PMS5003;61921;53.226;-1.296;2023-03-12T15:17:16;10;7;
73623;PMS5003;61921;53.226;-1.296;2023-03-12T15:19:40;13;7;
73623;PMS5003;61921;53.226;-1.296;2023-03-12T15:22:06;11;7;
73623;PMS5003;61921;53.226;-1.296;2023-03-12T15:24:36;14;9;
73623;PMS5003;61921;53.226;-1.296;2023-03-12T15:26:57;15;10;
73623;PMS5003;61921;53.226;-1.296;2023-03-12T15:29:24;10;7;
73623;PMS5003;61921;53.226;-1.296;2023-03-12T15:31:49;16;10;
73623;PMS5003;61921;53.226;-1.296;2023-03-12T15:34:23;11;9;
73623;PMS5003;61921;53.226;-1.296;2023-03-12T15:36:44;9;8;
73623;PMS5003;61921;53.226;-1.296;2023-03-12T15:41:34;9;9;
73623;PMS5003;61921;53.226;-1.296;2023-03-12T15:43:55;13;9;
73623;PMS5003;61921;53.226;-1.296;2023-03-12T15:46:20;9;7;
73623;PMS5003;61921;53.226;-1.296;2023-03-12T15:48:46;9;8;
73623;PMS5003;61921;53.226;-1.296;2023-03-12T15:51:12;9;5;
73623;PMS5003;61921;53.226;-1.296;2023-03-12T15:53:36;9;7;
73623;PMS5003;61921;53.226;-1.296;2023-03-12T15:56:03;7;7;
73623;PMS5003;61921;53.226;-1.296;2023-03-12T15:58:27;5;4;
73623;PMS5003;61921;53.226;-1.296;2023-03-12T16:00:52;6;6;
73623;PMS5003;61921;53.226;-1.296;2023-03-12T16:03:18;10;6;
73623;PMS5003;61921;53.226;-1.296;2023-03-12T16:05:43;7;5;
73623;PMS5003;61921;53.226;-1.296;2023-03-12T16:08:11;14;7;
73623;PMS5003;61921;53.226;-1.296;2023-03-12T16:10:34;9;7;
73623;PMS5003;61921;53.226;-1.296;2023-03-12T16:13:00;9;5;
73623;PMS5003;61921;53.226;-1.296;2023-03-12T16:15:26;9;6;
73623;PMS5003;61921;53.226;-1.296;2023-03-12T16:17:50;10;6;
73623;PMS5003;61921;53.226;-1.296;2023-03-12T16:20:15;8;8;
73623;PMS5003;61921;53.226;-1.296;2023-03-12T16:22:40;4;2;
73623;PMS5003;61921;53.226;-1.296;2023-03-12T16:25:06;6;3;
73623;PMS5003;61921;53.226;-1.296;2023-03-12T16:27:32;4;4;
73623;PMS5003;61921;53.226;-1.296;2023-03-12T16:29:57;5;5;
73623;PMS5003;61921;53.226;-1.296;2023-03-12T16:32:22;7;4;
73623;PMS5003;61921;53.226;-1.296;2023-03-12T16:34:47;4;4;
73623;PMS5003;61921;53.226;-1.296;2023-03-12T16:37:13;4;4;
73623;PMS5003;61921;53.226;-1.296;2023-03-12T16:39:38;4;3;
73623;PMS5003;61921;53.226;-1.296;2023-03-12T16:42:04;3;3;